createdAt,value
2017-08-23T00:01:50.061Z,19.50
2017-08-23T00:04:17.581Z,19.50
2017-08-23T00:06:45.121Z,19.40
2017-08-23T00:09:12.640Z,19.40
2017-08-23T00:11:40.157Z,19.40
2017-08-23T00:14:07.726Z,19.50
2017-08-23T00:16:35.273Z,19.50
2017-08-23T00:19:02.816Z,19.40
2017-08-23T00:21:30.350Z,19.20
2017-08-23T00:23:58.633Z,19.20
2017-08-23T00:26:26.270Z,19.20
2017-08-23T00:28:53.789Z,19.30
2017-08-23T00:31:21.335Z,19.30
2017-08-23T00:33:48.872Z,19.40
2017-08-23T00:36:16.397Z,19.40
2017-08-23T00:38:43.913Z,19.10
2017-08-23T00:41:11.430Z,19.00
2017-08-23T00:43:38.977Z,18.80
2017-08-23T00:46:06.501Z,18.60
2017-08-23T00:48:34.021Z,18.60
2017-08-23T00:51:02.065Z,18.20
2017-08-23T00:53:29.586Z,18.20
2017-08-23T00:55:57.285Z,18.10
2017-08-23T00:58:25.569Z,17.90
2017-08-23T01:00:53.086Z,17.90
2017-08-23T01:03:20.607Z,18.10
2017-08-23T01:05:48.125Z,18.30
2017-08-23T01:08:15.845Z,18.20
2017-08-23T01:10:43.357Z,17.70
2017-08-23T01:13:10.877Z,17.30
2017-08-23T01:15:38.392Z,17.20
2017-08-23T01:18:05.918Z,17.40
2017-08-23T01:20:33.489Z,17.40
2017-08-23T01:23:01.011Z,17.40
2017-08-23T01:25:28.538Z,17.60
2017-08-23T01:27:56.065Z,17.40
2017-08-23T01:30:23.594Z,17.30
2017-08-23T01:32:51.230Z,16.90
2017-08-23T01:35:18.758Z,16.70
2017-08-23T01:37:46.294Z,16.50
2017-08-23T01:40:13.823Z,16.50
2017-08-23T01:42:41.353Z,16.80
2017-08-23T01:45:08.913Z,16.90
2017-08-23T01:47:36.433Z,16.30
2017-08-23T01:50:03.954Z,16.20
2017-08-23T01:52:31.486Z,16.30
2017-08-23T01:54:59.019Z,15.90
2017-08-23T01:57:26.813Z,15.80
2017-08-23T01:59:54.343Z,15.80
2017-08-23T02:02:21.880Z,15.80
2017-08-23T02:04:49.409Z,15.90
2017-08-23T02:07:16.936Z,15.60
2017-08-23T02:09:44.489Z,15.40
2017-08-23T02:12:12.018Z,15.80
2017-08-23T02:14:39.538Z,15.80
2017-08-23T02:17:07.080Z,15.90
2017-08-23T02:19:34.609Z,15.70
2017-08-23T02:22:02.159Z,15.60
2017-08-23T02:24:29.686Z,15.80
2017-08-23T02:26:57.207Z,15.80
2017-08-23T02:29:24.733Z,15.80
2017-08-23T02:31:53.031Z,15.80
2017-08-23T02:34:20.586Z,15.80
2017-08-23T02:36:48.129Z,16.00
2017-08-23T02:39:15.658Z,16.20
2017-08-23T02:41:43.193Z,16.40
2017-08-23T02:44:10.718Z,16.20
2017-08-23T02:46:38.273Z,16.00
2017-08-23T02:49:05.819Z,15.90
2017-08-23T02:51:33.350Z,15.70
2017-08-23T02:54:00.874Z,15.70
2017-08-23T02:56:28.398Z,15.60
2017-08-23T02:58:56.713Z,15.50
2017-08-23T03:01:24.239Z,15.50
2017-08-23T03:03:51.795Z,15.50
2017-08-23T03:06:19.322Z,15.60
2017-08-23T03:08:46.878Z,15.70
2017-08-23T03:11:14.417Z,15.80
2017-08-23T03:13:41.944Z,15.40
2017-08-23T03:16:09.478Z,15.40
2017-08-23T03:21:13.849Z,15.60
2017-08-23T03:23:41.382Z,15.60
2017-08-23T03:26:08.921Z,15.60
2017-08-23T03:28:36.453Z,15.90
2017-08-23T03:31:03.972Z,15.80
2017-08-23T03:33:31.534Z,15.80
2017-08-23T03:35:59.057Z,15.50
2017-08-23T03:38:27.373Z,15.40
2017-08-23T03:40:54.910Z,15.40
2017-08-23T03:43:22.442Z,15.70
2017-08-23T03:45:50.006Z,16.00
2017-08-23T03:48:17.534Z,16.10
2017-08-23T03:50:45.062Z,16.00
2017-08-23T03:53:12.590Z,15.60
2017-08-23T03:55:40.118Z,15.50
2017-08-23T03:58:07.682Z,15.10
2017-08-23T04:00:35.219Z,15.10
2017-08-23T04:03:02.744Z,15.40
2017-08-23T04:05:30.267Z,15.50
2017-08-23T04:07:57.789Z,15.20
2017-08-23T04:10:25.338Z,14.90
2017-08-23T04:12:52.868Z,15.10
2017-08-23T04:15:20.390Z,15.50
2017-08-23T04:17:47.937Z,15.50
2017-08-23T04:20:15.464Z,15.60
2017-08-23T04:22:43.013Z,15.70
2017-08-23T04:25:10.538Z,15.90
2017-08-23T04:27:38.169Z,16.20
2017-08-23T04:30:05.701Z,16.30
2017-08-23T04:32:33.225Z,16.00
2017-08-23T04:35:00.786Z,16.20
2017-08-23T04:37:28.310Z,16.40
2017-08-23T04:39:55.833Z,16.60
2017-08-23T04:42:23.382Z,16.40
2017-08-23T04:44:50.942Z,16.20
2017-08-23T04:47:18.497Z,15.90
2017-08-23T04:49:46.030Z,16.10
2017-08-23T04:52:13.642Z,16.30
2017-08-23T04:54:41.171Z,16.00
2017-08-23T04:57:08.735Z,16.10
2017-08-23T04:59:36.289Z,16.10
2017-08-23T05:02:03.819Z,16.00
2017-08-23T05:04:31.357Z,15.70
2017-08-23T05:06:58.882Z,15.80
2017-08-23T05:09:26.406Z,16.20
2017-08-23T05:11:53.994Z,16.30
2017-08-23T05:14:21.522Z,16.70
2017-08-23T05:16:49.050Z,16.80
2017-08-23T05:19:16.582Z,16.50
2017-08-23T05:21:44.101Z,16.20
2017-08-23T05:24:11.650Z,16.10
2017-08-23T05:26:39.182Z,15.80
2017-08-23T05:29:06.706Z,16.20
2017-08-23T05:31:34.243Z,16.20
2017-08-23T05:34:01.771Z,16.40
2017-08-23T05:36:29.361Z,16.60
2017-08-23T05:38:56.885Z,16.20
2017-08-23T05:41:25.202Z,16.30
2017-08-23T05:43:52.733Z,16.20
2017-08-23T05:46:20.338Z,16.30
2017-08-23T05:48:47.890Z,16.20
2017-08-23T05:51:15.413Z,16.40
2017-08-23T05:53:42.934Z,16.40
2017-08-23T05:56:10.462Z,16.80
2017-08-23T05:58:37.986Z,16.90
2017-08-23T06:01:05.542Z,17.20
2017-08-23T06:03:33.129Z,17.40
2017-08-23T06:06:00.654Z,17.70
2017-08-23T06:08:28.180Z,17.20
2017-08-23T06:10:55.709Z,16.80
2017-08-23T06:13:23.258Z,16.60
2017-08-23T06:15:50.778Z,16.90
2017-08-23T06:18:18.373Z,16.90
2017-08-23T06:20:45.945Z,16.90
2017-08-23T06:23:13.499Z,17.30
2017-08-23T06:25:41.046Z,17.40
2017-08-23T06:28:08.646Z,17.40
2017-08-23T06:30:36.186Z,17.70
2017-08-23T06:33:03.722Z,18.00
2017-08-23T06:35:31.248Z,18.10
2017-08-23T06:37:58.795Z,18.40
2017-08-23T06:40:26.410Z,18.50
2017-08-23T06:42:53.958Z,18.60
2017-08-23T06:45:21.486Z,18.70
2017-08-23T06:47:49.016Z,18.90
2017-08-23T06:50:16.738Z,19.10
2017-08-23T06:52:44.270Z,19.20
2017-08-23T06:55:11.786Z,18.80
2017-08-23T06:57:39.320Z,18.70
2017-08-23T07:00:06.841Z,18.70
2017-08-23T07:02:35.153Z,19.20
2017-08-23T07:05:02.673Z,19.20
2017-08-23T07:07:30.193Z,19.40
2017-08-23T07:09:57.822Z,19.20
2017-08-23T07:12:25.350Z,18.70
2017-08-23T07:14:52.904Z,18.90
2017-08-23T07:17:20.446Z,19.00
2017-08-23T07:19:47.974Z,18.80
2017-08-23T07:22:15.493Z,18.90
2017-08-23T07:24:43.014Z,19.30
2017-08-23T07:27:10.573Z,19.40
2017-08-23T07:29:38.090Z,19.80
2017-08-23T07:32:05.614Z,19.90
2017-08-23T07:34:33.900Z,20.40
2017-08-23T07:37:01.425Z,20.40
2017-08-23T07:39:29.088Z,20.60
2017-08-23T07:41:56.606Z,20.70
2017-08-23T07:44:24.130Z,20.80
2017-08-23T07:46:51.682Z,20.70
2017-08-23T07:49:19.206Z,20.80
2017-08-23T07:51:46.935Z,21.00
2017-08-23T07:54:14.462Z,21.00
2017-08-23T07:56:41.993Z,21.00
2017-08-23T07:59:09.513Z,21.10
2017-08-23T08:01:37.034Z,21.30
2017-08-23T08:04:04.586Z,21.10
2017-08-23T08:06:32.109Z,21.30
2017-08-23T08:08:59.626Z,21.30
2017-08-23T08:11:27.146Z,21.10
2017-08-23T08:13:54.674Z,21.10
2017-08-23T08:16:22.217Z,20.70
2017-08-23T08:18:49.741Z,20.10
2017-08-23T08:21:17.266Z,20.40
2017-08-23T08:23:44.807Z,20.70
2017-08-23T08:26:12.334Z,20.20
2017-08-23T08:28:40.006Z,20.50
2017-08-23T08:31:07.575Z,20.70
2017-08-23T08:33:35.093Z,20.80
2017-08-23T08:36:02.605Z,21.10
2017-08-23T08:38:30.122Z,21.50
2017-08-23T08:40:57.705Z,21.60
2017-08-23T08:43:25.241Z,21.60
2017-08-23T08:45:52.758Z,21.60
2017-08-23T08:48:20.385Z,21.60
2017-08-23T08:50:47.937Z,21.80
2017-08-23T08:53:15.458Z,22.00
2017-08-23T08:55:42.979Z,22.10
2017-08-23T08:58:10.533Z,22.20
2017-08-23T09:00:38.063Z,22.10
2017-08-23T09:03:05.590Z,21.90
2017-08-23T09:05:33.873Z,21.90
2017-08-23T09:08:01.393Z,21.90
2017-08-23T09:10:28.945Z,22.30
2017-08-23T09:12:56.458Z,22.30
2017-08-23T09:15:23.986Z,22.20
2017-08-23T09:17:51.518Z,22.10
2017-08-23T09:20:19.033Z,22.10
2017-08-23T09:22:46.590Z,22.60
2017-08-23T09:25:14.109Z,22.40
2017-08-23T09:27:41.633Z,22.60
2017-08-23T09:30:09.153Z,22.90
2017-08-23T09:32:36.674Z,23.10
2017-08-23T09:35:04.513Z,23.30
2017-08-23T09:37:32.034Z,23.40
2017-08-23T09:39:59.554Z,23.70
2017-08-23T09:42:27.070Z,23.80
2017-08-23T09:44:54.585Z,23.70
2017-08-23T09:47:22.137Z,23.90
2017-08-23T09:49:49.657Z,24.00
2017-08-23T09:52:17.194Z,24.20
2017-08-23T09:54:44.717Z,24.10
2017-08-23T09:57:12.238Z,24.50
2017-08-23T09:59:39.785Z,24.90
2017-08-23T10:02:07.301Z,25.10
2017-08-23T10:04:34.822Z,25.00
2017-08-23T10:07:02.338Z,24.30
2017-08-23T10:09:29.870Z,24.40
2017-08-23T10:11:57.420Z,24.00
2017-08-23T10:14:24.940Z,24.10
2017-08-23T10:16:52.492Z,24.40
2017-08-23T10:19:20.013Z,25.00
2017-08-23T10:21:47.606Z,25.20
2017-08-23T10:24:15.149Z,25.30
2017-08-23T10:26:42.665Z,25.50
2017-08-23T10:29:10.194Z,25.50
2017-08-23T10:31:37.720Z,25.50
2017-08-23T10:34:05.307Z,25.50
2017-08-23T10:36:32.858Z,25.60
2017-08-23T10:39:00.377Z,25.50
2017-08-23T10:41:27.893Z,25.70
2017-08-23T10:43:55.418Z,25.70
2017-08-23T10:46:22.937Z,25.60
2017-08-23T10:48:50.449Z,25.90
2017-08-23T10:51:17.966Z,26.10
2017-08-23T10:53:45.488Z,26.30
2017-08-23T10:56:13.014Z,26.60
2017-08-23T10:58:40.537Z,26.80
2017-08-23T11:01:08.141Z,27.00
2017-08-23T11:03:35.662Z,27.20
2017-08-23T11:06:03.191Z,27.20
2017-08-23T11:08:30.733Z,27.30
2017-08-23T11:10:58.257Z,27.10
2017-08-23T11:13:25.779Z,27.20
2017-08-23T11:15:53.302Z,27.20
2017-08-23T11:18:20.825Z,27.40
2017-08-23T11:20:48.380Z,27.50
2017-08-23T11:23:15.916Z,27.50
2017-08-23T11:25:43.534Z,27.60
2017-08-23T11:28:11.061Z,27.50
2017-08-23T11:30:38.638Z,27.60
2017-08-23T11:33:06.185Z,27.40
2017-08-23T11:35:33.706Z,27.20
2017-08-23T11:38:01.234Z,27.30
2017-08-23T11:40:28.757Z,27.60
2017-08-23T11:42:56.277Z,27.70
2017-08-23T11:45:23.829Z,27.90
2017-08-23T11:47:51.354Z,28.60
2017-08-23T11:50:18.882Z,29.10
2017-08-23T11:52:46.405Z,29.30
2017-08-23T11:55:13.933Z,30.00
2017-08-23T11:57:41.485Z,29.70
2017-08-23T12:00:09.002Z,29.60
2017-08-23T12:02:36.518Z,30.30
2017-08-23T12:05:04.067Z,30.60
2017-08-23T12:07:31.582Z,31.40
2017-08-23T12:09:59.153Z,32.00
2017-08-23T12:12:26.675Z,32.00
2017-08-23T12:14:54.195Z,31.90
2017-08-23T12:17:21.713Z,32.10
2017-08-23T12:19:49.272Z,31.60
2017-08-23T12:22:16.842Z,31.10
2017-08-23T12:24:44.367Z,31.00
2017-08-23T12:27:11.889Z,32.10
2017-08-23T12:29:39.405Z,33.50
2017-08-23T12:32:06.922Z,33.40
2017-08-23T12:34:34.666Z,33.10
2017-08-23T12:37:02.190Z,32.80
2017-08-23T12:39:29.713Z,32.20
2017-08-23T12:41:57.238Z,32.90
2017-08-23T12:44:24.762Z,34.20
2017-08-23T12:46:53.085Z,36.70
2017-08-23T12:49:20.601Z,36.60
2017-08-23T12:51:48.125Z,37.30
2017-08-23T12:54:15.657Z,36.30
2017-08-23T12:56:43.180Z,35.30
2017-08-23T12:59:10.717Z,34.90
2017-08-23T13:01:38.246Z,36.40
2017-08-23T13:04:05.768Z,38.90
2017-08-23T13:06:33.298Z,40.30
2017-08-23T13:09:00.828Z,41.50
2017-08-23T13:11:28.374Z,42.80
2017-08-23T13:13:55.890Z,44.00
2017-08-23T13:16:23.405Z,44.60
2017-08-23T13:18:50.933Z,45.70
2017-08-23T13:21:18.457Z,46.30
2017-08-23T13:23:46.007Z,46.40
2017-08-23T13:26:13.537Z,46.00
2017-08-23T13:28:41.075Z,46.20
2017-08-23T13:31:08.607Z,46.60
2017-08-23T13:33:36.153Z,47.60
2017-08-23T13:36:03.708Z,47.20
2017-08-23T13:38:31.238Z,47.00
2017-08-23T13:40:59.574Z,46.20
2017-08-23T13:43:27.093Z,46.50
2017-08-23T13:45:54.614Z,46.70
2017-08-23T13:48:22.158Z,47.70
2017-08-23T13:50:49.690Z,49.10
2017-08-23T13:53:17.226Z,49.00
2017-08-23T13:55:44.758Z,49.20
2017-08-23T13:58:12.291Z,49.90
2017-08-23T14:00:39.841Z,50.80
2017-08-23T14:03:07.366Z,51.00
2017-08-23T14:05:34.893Z,49.70
2017-08-23T14:08:02.417Z,49.00
2017-08-23T14:10:29.938Z,49.40
2017-08-23T14:12:58.249Z,50.00
2017-08-23T14:15:25.807Z,49.90
2017-08-23T14:17:53.334Z,50.10
2017-08-23T14:20:20.849Z,50.30
2017-08-23T14:22:48.374Z,50.20
2017-08-23T14:25:15.944Z,50.30
2017-08-23T14:27:43.466Z,48.80
2017-08-23T14:30:10.989Z,49.40
2017-08-23T14:32:38.556Z,49.40
2017-08-23T14:35:06.065Z,50.40
2017-08-23T14:37:33.618Z,50.60
2017-08-23T14:40:01.145Z,50.10
2017-08-23T14:42:28.683Z,49.60
2017-08-23T14:44:56.205Z,49.20
2017-08-23T14:47:23.739Z,49.50
2017-08-23T14:49:51.285Z,49.30
2017-08-23T14:52:18.810Z,49.70
2017-08-23T14:54:46.329Z,49.70
2017-08-23T14:57:13.873Z,49.80
2017-08-23T14:59:41.389Z,50.00
2017-08-23T15:02:08.945Z,49.30
2017-08-23T15:04:36.467Z,48.90
2017-08-23T15:07:03.985Z,50.00
2017-08-23T15:09:31.501Z,50.40
2017-08-23T15:11:59.023Z,50.80
2017-08-23T15:14:26.565Z,51.00
2017-08-23T15:16:54.082Z,51.00
2017-08-23T15:19:21.602Z,50.70
2017-08-23T15:21:49.138Z,49.80
2017-08-23T15:24:16.658Z,49.80
2017-08-23T15:26:44.220Z,50.20
2017-08-23T15:29:11.746Z,49.80
2017-08-23T15:31:39.270Z,48.50
2017-08-23T15:34:06.790Z,48.30
2017-08-23T15:36:34.310Z,47.50
2017-08-23T15:39:01.859Z,47.70
2017-08-23T15:41:29.381Z,47.90
2017-08-23T15:43:56.945Z,48.20
2017-08-23T15:46:24.477Z,47.10
2017-08-23T15:48:52.006Z,45.90
2017-08-23T15:51:19.549Z,45.40
2017-08-23T15:53:47.075Z,44.90
2017-08-23T15:56:14.603Z,44.60
2017-08-23T15:58:42.124Z,44.40
2017-08-23T16:01:09.656Z,44.10
2017-08-23T16:03:37.206Z,43.10
2017-08-23T16:06:04.769Z,42.10
2017-08-23T16:08:32.302Z,41.80
2017-08-23T16:10:59.831Z,40.50
2017-08-23T16:13:27.345Z,39.90
2017-08-23T16:15:54.902Z,38.60
2017-08-23T16:18:22.426Z,37.90
2017-08-23T16:20:49.945Z,36.70
2017-08-23T16:23:17.470Z,35.50
2017-08-23T16:25:45.004Z,34.20
2017-08-23T16:28:12.558Z,33.20
2017-08-23T16:30:40.107Z,32.50
2017-08-23T16:33:07.627Z,31.50
2017-08-23T16:35:35.938Z,30.50
2017-08-23T16:38:03.454Z,30.40
2017-08-23T16:40:31.038Z,30.20
2017-08-23T16:42:58.559Z,29.90
2017-08-23T16:45:26.092Z,29.30
2017-08-23T16:47:53.610Z,29.20
2017-08-23T16:50:21.130Z,29.20
2017-08-23T16:52:48.678Z,29.10
2017-08-23T16:55:16.191Z,28.70
2017-08-23T16:57:43.706Z,28.50
2017-08-23T17:00:11.238Z,28.50
2017-08-23T17:02:38.759Z,28.50
2017-08-23T17:05:06.307Z,28.30
2017-08-23T17:07:33.830Z,28.00
2017-08-23T17:10:01.453Z,27.80
2017-08-23T17:12:28.975Z,27.70
2017-08-23T17:14:56.493Z,27.60
2017-08-23T17:17:24.055Z,27.50
2017-08-23T17:19:51.586Z,27.30
2017-08-23T17:22:19.118Z,27.30
2017-08-23T17:24:46.643Z,27.10
2017-08-23T17:27:14.168Z,27.10
2017-08-23T17:29:41.713Z,26.50
2017-08-23T17:32:09.250Z,26.50
2017-08-23T17:34:36.778Z,26.60
2017-08-23T17:37:04.298Z,26.60
2017-08-23T17:39:31.853Z,26.40
2017-08-23T17:41:59.402Z,26.40
2017-08-23T17:44:26.918Z,26.30
2017-08-23T17:46:54.459Z,26.20
2017-08-23T17:49:21.981Z,26.00
2017-08-23T17:51:49.498Z,25.70
2017-08-23T17:54:17.042Z,25.50
2017-08-23T17:56:44.578Z,25.50
2017-08-23T17:59:12.862Z,25.60
2017-08-23T18:01:40.392Z,25.50
2017-08-23T18:04:07.917Z,25.50
2017-08-23T18:06:36.239Z,25.40
2017-08-23T18:09:03.761Z,25.40
2017-08-23T18:11:31.297Z,25.30
2017-08-23T18:13:58.818Z,25.20
2017-08-23T18:16:26.341Z,25.10
2017-08-23T18:18:53.895Z,25.10
2017-08-23T18:21:21.425Z,25.00
2017-08-23T18:23:48.960Z,24.90
2017-08-23T18:26:16.498Z,24.80
2017-08-23T18:28:44.010Z,24.70
2017-08-23T18:31:11.569Z,24.60
2017-08-23T18:33:39.090Z,24.40
2017-08-23T18:36:06.619Z,24.40
2017-08-23T18:38:34.162Z,24.30
2017-08-23T18:41:01.691Z,24.30
2017-08-23T18:43:29.322Z,24.30
2017-08-23T18:45:56.841Z,24.20
2017-08-23T18:48:24.366Z,24.10
2017-08-23T18:50:51.893Z,24.00
2017-08-23T18:53:19.442Z,24.10
2017-08-23T18:55:47.001Z,23.90
2017-08-23T18:58:14.540Z,23.80
2017-08-23T19:00:42.066Z,23.70
2017-08-23T19:03:09.589Z,23.70
2017-08-23T19:05:37.113Z,23.70
2017-08-23T19:08:04.662Z,23.70
2017-08-23T19:10:32.197Z,23.50
2017-08-23T19:12:59.736Z,23.60
2017-08-23T19:15:27.267Z,23.60
2017-08-23T19:17:54.808Z,23.60
2017-08-23T19:20:22.390Z,23.50
2017-08-23T19:22:49.922Z,23.40
2017-08-23T19:25:17.508Z,23.30
2017-08-23T19:27:45.033Z,23.20
2017-08-23T19:30:12.566Z,23.20
2017-08-23T19:32:40.124Z,23.20
2017-08-23T19:35:07.646Z,23.20
2017-08-23T19:37:35.202Z,23.20
2017-08-23T19:40:02.747Z,23.20
2017-08-23T19:42:30.269Z,23.00
2017-08-23T19:44:57.821Z,23.00
2017-08-23T19:47:26.121Z,23.00
2017-08-23T19:49:53.720Z,23.00
2017-08-23T19:52:21.241Z,23.00
2017-08-23T19:54:48.773Z,22.90
2017-08-23T19:57:16.326Z,22.80
2017-08-23T19:59:43.887Z,22.70
2017-08-23T20:02:11.402Z,22.50
2017-08-23T20:04:38.934Z,22.40
2017-08-23T20:07:06.466Z,22.50
2017-08-23T20:09:34.028Z,22.40
2017-08-23T20:12:01.564Z,22.40
2017-08-23T20:14:29.104Z,22.40
2017-08-23T20:16:56.646Z,22.50
2017-08-23T20:19:24.174Z,22.30
2017-08-23T20:21:51.729Z,22.10
2017-08-23T20:24:19.273Z,22.10
2017-08-23T20:26:46.802Z,22.20
2017-08-23T20:29:14.328Z,22.20
2017-08-23T20:31:41.855Z,22.10
2017-08-23T20:34:09.415Z,22.10
2017-08-23T20:36:37.013Z,22.00
2017-08-23T20:39:04.545Z,21.80
2017-08-23T20:41:32.075Z,21.80
2017-08-23T20:43:59.605Z,21.80
2017-08-23T20:46:27.921Z,21.50
2017-08-23T20:48:55.454Z,21.50
2017-08-23T20:51:23.048Z,21.70
2017-08-23T20:53:50.646Z,21.70
2017-08-23T20:56:18.171Z,21.50
2017-08-23T20:58:45.717Z,21.50
2017-08-23T21:01:14.006Z,21.40
2017-08-23T21:03:41.534Z,21.30
2017-08-23T21:06:09.062Z,21.50
2017-08-23T21:08:36.589Z,21.40
2017-08-23T21:11:04.145Z,21.20
2017-08-23T21:13:31.677Z,21.20
2017-08-23T21:15:59.201Z,21.40
2017-08-23T21:18:26.749Z,21.40
2017-08-23T21:20:54.285Z,21.40
2017-08-23T21:23:21.835Z,21.40
2017-08-23T21:25:49.362Z,21.40
2017-08-23T21:28:16.886Z,21.50
2017-08-23T21:30:44.418Z,21.40
2017-08-23T21:33:11.946Z,21.40
2017-08-23T21:35:40.266Z,21.30
2017-08-23T21:38:07.798Z,21.30
2017-08-23T21:40:35.335Z,20.80
2017-08-23T21:43:02.868Z,20.80
2017-08-23T21:45:30.402Z,20.70
2017-08-23T21:47:57.958Z,20.60
2017-08-23T21:50:25.495Z,20.60
2017-08-23T21:52:53.027Z,20.70
2017-08-23T21:55:20.554Z,20.70
2017-08-23T21:57:48.084Z,20.00
2017-08-23T22:00:15.954Z,19.90
2017-08-23T22:02:43.480Z,19.80
2017-08-23T22:05:10.997Z,19.70
2017-08-23T22:07:38.634Z,20.10
2017-08-23T22:10:06.167Z,20.10
2017-08-23T22:12:33.724Z,20.20
2017-08-23T22:15:01.250Z,20.10
2017-08-23T22:17:28.780Z,19.70
2017-08-23T22:19:56.305Z,19.70
2017-08-23T22:22:23.834Z,19.70
2017-08-23T22:24:51.386Z,19.50
2017-08-23T22:27:18.922Z,19.30
2017-08-23T22:29:46.452Z,19.10
2017-08-23T22:32:13.979Z,19.00
2017-08-23T22:34:41.550Z,19.20
2017-08-23T22:37:09.111Z,19.60
2017-08-23T22:39:36.645Z,19.30
2017-08-23T22:42:04.169Z,19.40
2017-08-23T22:44:31.689Z,19.40
2017-08-23T22:46:59.210Z,19.50
2017-08-23T22:49:26.757Z,19.50
2017-08-23T22:51:54.282Z,19.40
2017-08-23T22:54:21.806Z,19.60
2017-08-23T22:56:49.334Z,19.70
2017-08-23T22:59:16.867Z,19.80
2017-08-23T23:01:44.422Z,19.20
2017-08-23T23:04:11.953Z,19.10
2017-08-23T23:06:39.494Z,19.20
2017-08-23T23:09:07.018Z,19.20
2017-08-23T23:11:34.554Z,19.20
2017-08-23T23:14:02.110Z,19.20
2017-08-23T23:16:29.633Z,18.80
2017-08-23T23:18:57.161Z,18.30
2017-08-23T23:21:24.689Z,18.50
2017-08-23T23:23:52.221Z,18.70
2017-08-23T23:26:19.778Z,18.90
2017-08-23T23:28:47.302Z,19.00
2017-08-23T23:31:14.822Z,19.10
2017-08-23T23:33:42.346Z,19.10
2017-08-23T23:36:09.875Z,19.30
2017-08-23T23:38:37.430Z,19.20
2017-08-23T23:41:04.958Z,19.40
2017-08-23T23:43:32.479Z,19.40
2017-08-23T23:46:00.005Z,19.40
2017-08-23T23:48:27.524Z,19.30
2017-08-23T23:50:55.078Z,19.20
2017-08-23T23:53:22.610Z,19.20
2017-08-23T23:55:50.196Z,19.20
2017-08-23T23:58:17.721Z,18.90
